sensor_id;sensor_type;location;lat;lon;timestamp;P1;durP1;ratioP1;P2;durP2;ratioP2
19396;SDS011;9834;48.076;11.878;2023-12-04T00:00:19;13.17;;;5.10;;
19396;SDS011;9834;48.076;11.878;2023-12-04T00:02:49;4.23;;;3.43;;
19396;SDS011;9834;48.076;11.878;2023-12-04T00:05:20;7.90;;;5.03;;
19396;SDS011;9834;48.076;11.878;2023-12-04T00:07:47;10.97;;;4.97;;
19396;SDS011;9834;48.076;11.878;2023-12-04T00:10:28;10.57;;;4.83;;
19396;SDS011;9834;48.076;11.878;2023-12-04T00:13:04;10.10;;;5.30;;
19396;SDS011;9834;48.076;11.878;2023-12-04T00:15:40;7.83;;;4.53;;
19396;SDS011;9834;48.076;11.878;2023-12-04T00:18:13;10.50;;;3.90;;
19396;SDS011;9834;48.076;11.878;2023-12-04T00:20:40;8.60;;;5.20;;
19396;SDS011;9834;48.076;11.878;2023-12-04T00:23:11;12.93;;;3.83;;
19396;SDS011;9834;48.076;11.878;2023-12-04T00:25:38;10.80;;;5.17;;
19396;SDS011;9834;48.076;11.878;2023-12-04T00:28:11;10.00;;;4.83;;
19396;SDS011;9834;48.076;11.878;2023-12-04T00:30:48;9.57;;;4.83;;
19396;SDS011;9834;48.076;11.878;2023-12-04T00:33:18;10.03;;;4.57;;
19396;SDS011;9834;48.076;11.878;2023-12-04T00:35:51;9.20;;;4.57;;
19396;SDS011;9834;48.076;11.878;2023-12-04T00:38:18;8.87;;;4.83;;
19396;SDS011;9834;48.076;11.878;2023-12-04T00:40:45;11.83;;;5.47;;
19396;SDS011;9834;48.076;11.878;2023-12-04T00:43:16;7.77;;;5.17;;
19396;SDS011;9834;48.076;11.878;2023-12-04T00:45:46;9.90;;;6.17;;
19396;SDS011;9834;48.076;11.878;2023-12-04T00:48:17;11.77;;;6.17;;
19396;SDS011;9834;48.076;11.878;2023-12-04T00:50:44;7.03;;;4.27;;
19396;SDS011;9834;48.076;11.878;2023-12-04T00:53:12;8.57;;;4.77;;
19396;SDS011;9834;48.076;11.878;2023-12-04T00:55:50;8.20;;;4.97;;
19396;SDS011;9834;48.076;11.878;2023-12-04T00:58:20;13.17;;;6.80;;
19396;SDS011;9834;48.076;11.878;2023-12-04T01:00:48;9.77;;;5.60;;
19396;SDS011;9834;48.076;11.878;2023-12-04T01:03:22;8.47;;;4.87;;
19396;SDS011;9834;48.076;11.878;2023-12-04T01:05:51;10.83;;;4.83;;
19396;SDS011;9834;48.076;11.878;2023-12-04T01:08:19;8.17;;;4.83;;
19396;SDS011;9834;48.076;11.878;2023-12-04T01:10:49;8.80;;;4.80;;
19396;SDS011;9834;48.076;11.878;2023-12-04T01:13:16;8.37;;;4.67;;
19396;SDS011;9834;48.076;11.878;2023-12-04T01:15:44;11.57;;;5.20;;
19396;SDS011;9834;48.076;11.878;2023-12-04T01:18:17;6.37;;;4.40;;
19396;SDS011;9834;48.076;11.878;2023-12-04T01:20:49;8.57;;;5.03;;
19396;SDS011;9834;48.076;11.878;2023-12-04T01:23:19;9.93;;;4.97;;
19396;SDS011;9834;48.076;11.878;2023-12-04T01:25:50;8.53;;;3.97;;
19396;SDS011;9834;48.076;11.878;2023-12-04T01:28:18;8.20;;;4.20;;
19396;SDS011;9834;48.076;11.878;2023-12-04T01:30:45;6.17;;;4.90;;
19396;SDS011;9834;48.076;11.878;2023-12-04T01:33:15;7.17;;;4.83;;
19396;SDS011;9834;48.076;11.878;2023-12-04T01:35:44;7.03;;;5.07;;
19396;SDS011;9834;48.076;11.878;2023-12-04T01:38:11;8.33;;;5.20;;
19396;SDS011;9834;48.076;11.878;2023-12-04T01:40:38;9.43;;;5.30;;
19396;SDS011;9834;48.076;11.878;2023-12-04T01:43:06;7.87;;;5.33;;
19396;SDS011;9834;48.076;11.878;2023-12-04T01:45:35;10.33;;;4.50;;
19396;SDS011;9834;48.076;11.878;2023-12-04T01:48:03;13.23;;;6.20;;
19396;SDS011;9834;48.076;11.878;2023-12-04T01:50:33;11.43;;;5.03;;
19396;SDS011;9834;48.076;11.878;2023-12-04T01:53:02;7.30;;;4.63;;
19396;SDS011;9834;48.076;11.878;2023-12-04T01:55:30;11.60;;;4.50;;
19396;SDS011;9834;48.076;11.878;2023-12-04T01:58:02;6.90;;;3.87;;
19396;SDS011;9834;48.076;11.878;2023-12-04T02:00:32;11.27;;;5.60;;
19396;SDS011;9834;48.076;11.878;2023-12-04T02:03:03;11.70;;;5.70;;
19396;SDS011;9834;48.076;11.878;2023-12-04T02:05:30;8.80;;;4.20;;
19396;SDS011;9834;48.076;11.878;2023-12-04T02:08:08;5.67;;;4.13;;
19396;SDS011;9834;48.076;11.878;2023-12-04T02:10:39;7.87;;;5.17;;
19396;SDS011;9834;48.076;11.878;2023-12-04T02:13:09;11.80;;;5.53;;
19396;SDS011;9834;48.076;11.878;2023-12-04T02:15:37;8.87;;;5.67;;
19396;SDS011;9834;48.076;11.878;2023-12-04T02:18:08;8.60;;;5.50;;
19396;SDS011;9834;48.076;11.878;2023-12-04T02:20:38;8.20;;;4.87;;
19396;SDS011;9834;48.076;11.878;2023-12-04T02:23:12;8.47;;;5.00;;
19396;SDS011;9834;48.076;11.878;2023-12-04T02:25:44;10.03;;;5.40;;
19396;SDS011;9834;48.076;11.878;2023-12-04T02:28:12;8.07;;;5.40;;
19396;SDS011;9834;48.076;11.878;2023-12-04T02:30:43;11.90;;;5.77;;
19396;SDS011;9834;48.076;11.878;2023-12-04T02:33:15;12.43;;;5.30;;
19396;SDS011;9834;48.076;11.878;2023-12-04T02:35:48;6.43;;;4.27;;
19396;SDS011;9834;48.076;11.878;2023-12-04T02:38:16;9.17;;;5.77;;
19396;SDS011;9834;48.076;11.878;2023-12-04T02:40:46;14.27;;;6.33;;
19396;SDS011;9834;48.076;11.878;2023-12-04T02:43:14;9.53;;;4.40;;
19396;SDS011;9834;48.076;11.878;2023-12-04T02:45:43;11.77;;;6.20;;
19396;SDS011;9834;48.076;11.878;2023-12-04T02:48:13;12.87;;;5.47;;
19396;SDS011;9834;48.076;11.878;2023-12-04T02:50:40;6.97;;;5.17;;
19396;SDS011;9834;48.076;11.878;2023-12-04T02:53:13;9.83;;;5.43;;
19396;SDS011;9834;48.076;11.878;2023-12-04T02:55:47;7.93;;;4.63;;
19396;SDS011;9834;48.076;11.878;2023-12-04T02:58:15;12.63;;;4.90;;
19396;SDS011;9834;48.076;11.878;2023-12-04T03:00:47;10.63;;;5.27;;
19396;SDS011;9834;48.076;11.878;2023-12-04T03:03:21;13.03;;;5.37;;
19396;SDS011;9834;48.076;11.878;2023-12-04T03:05:48;8.53;;;4.50;;
19396;SDS011;9834;48.076;11.878;2023-12-04T03:08:16;9.70;;;3.93;;
19396;SDS011;9834;48.076;11.878;2023-12-04T03:10:50;9.10;;;5.93;;
19396;SDS011;9834;48.076;11.878;2023-12-04T03:13:17;10.63;;;5.10;;
19396;SDS011;9834;48.076;11.878;2023-12-04T03:15:45;7.90;;;4.83;;
19396;SDS011;9834;48.076;11.878;2023-12-04T03:18:12;6.60;;;4.50;;
19396;SDS011;9834;48.076;11.878;2023-12-04T03:20:39;8.10;;;6.43;;
19396;SDS011;9834;48.076;11.878;2023-12-04T03:23:07;10.70;;;6.40;;
19396;SDS011;9834;48.076;11.878;2023-12-04T03:25:34;9.07;;;5.67;;
19396;SDS011;9834;48.076;11.878;2023-12-04T03:28:11;10.13;;;4.53;;
19396;SDS011;9834;48.076;11.878;2023-12-04T03:30:40;9.40;;;5.53;;
19396;SDS011;9834;48.076;11.878;2023-12-04T03:33:10;6.93;;;4.07;;
19396;SDS011;9834;48.076;11.878;2023-12-04T03:35:38;10.47;;;4.80;;
19396;SDS011;9834;48.076;11.878;2023-12-04T03:38:08;11.37;;;5.40;;
19396;SDS011;9834;48.076;11.878;2023-12-04T03:40:35;11.10;;;5.70;;
19396;SDS011;9834;48.076;11.878;2023-12-04T03:43:06;10.57;;;6.47;;
19396;SDS011;9834;48.076;11.878;2023-12-04T03:45:38;11.67;;;4.97;;
19396;SDS011;9834;48.076;11.878;2023-12-04T03:48:05;15.63;;;6.27;;
19396;SDS011;9834;48.076;11.878;2023-12-04T03:50:33;14.77;;;6.90;;
19396;SDS011;9834;48.076;11.878;2023-12-04T03:53:00;17.50;;;6.43;;
19396;SDS011;9834;48.076;11.878;2023-12-04T03:55:30;12.00;;;7.60;;
19396;SDS011;9834;48.076;11.878;2023-12-04T03:58:03;10.63;;;5.77;;
19396;SDS011;9834;48.076;11.878;2023-12-04T04:00:33;11.73;;;4.23;;
19396;SDS011;9834;48.076;11.878;2023-12-04T04:03:06;14.17;;;7.23;;
19396;SDS011;9834;48.076;11.878;2023-12-04T04:05:34;10.57;;;4.73;;
19396;SDS011;9834;48.076;11.878;2023-12-04T04:08:06;11.47;;;5.67;;
19396;SDS011;9834;48.076;11.878;2023-12-04T04:10:37;9.77;;;5.10;;
19396;SDS011;9834;48.076;11.878;2023-12-04T04:13:04;15.70;;;5.40;;
19396;SDS011;9834;48.076;11.878;2023-12-04T04:15:40;10.80;;;5.57;;
19396;SDS011;9834;48.076;11.878;2023-12-04T04:18:09;10.20;;;4.90;;
19396;SDS011;9834;48.076;11.878;2023-12-04T04:20:37;7.47;;;4.23;;
19396;SDS011;9834;48.076;11.878;2023-12-04T04:23:04;7.30;;;4.80;;
19396;SDS011;9834;48.076;11.878;2023-12-04T04:25:39;9.60;;;5.40;;
19396;SDS011;9834;48.076;11.878;2023-12-04T04:28:20;10.40;;;5.60;;
19396;SDS011;9834;48.076;11.878;2023-12-04T04:30:50;8.87;;;4.77;;
19396;SDS011;9834;48.076;11.878;2023-12-04T04:33:32;12.50;;;5.73;;
19396;SDS011;9834;48.076;11.878;2023-12-04T04:36:03;7.57;;;4.33;;
19396;SDS011;9834;48.076;11.878;2023-12-04T04:38:34;10.93;;;5.90;;
19396;SDS011;9834;48.076;11.878;2023-12-04T04:41:02;10.47;;;4.27;;
19396;SDS011;9834;48.076;11.878;2023-12-04T04:43:30;11.80;;;6.20;;
19396;SDS011;9834;48.076;11.878;2023-12-04T04:45:59;11.03;;;5.47;;
19396;SDS011;9834;48.076;11.878;2023-12-04T04:48:33;13.53;;;5.43;;
19396;SDS011;9834;48.076;11.878;2023-12-04T04:51:08;12.43;;;6.47;;
19396;SDS011;9834;48.076;11.878;2023-12-04T04:53:35;14.33;;;5.93;;
19396;SDS011;9834;48.076;11.878;2023-12-04T04:56:05;12.60;;;5.17;;
19396;SDS011;9834;48.076;11.878;2023-12-04T04:58:37;7.93;;;3.33;;
19396;SDS011;9834;48.076;11.878;2023-12-04T05:01:08;5.73;;;3.83;;
19396;SDS011;9834;48.076;11.878;2023-12-04T05:03:37;10.23;;;4.73;;
19396;SDS011;9834;48.076;11.878;2023-12-04T05:06:04;7.20;;;4.07;;
19396;SDS011;9834;48.076;11.878;2023-12-04T05:08:34;13.27;;;5.93;;
19396;SDS011;9834;48.076;11.878;2023-12-04T05:11:01;11.07;;;4.47;;
19396;SDS011;9834;48.076;11.878;2023-12-04T05:13:28;5.47;;;4.17;;
19396;SDS011;9834;48.076;11.878;2023-12-04T05:15:56;7.17;;;4.23;;
19396;SDS011;9834;48.076;11.878;2023-12-04T05:18:29;11.90;;;4.60;;
19396;SDS011;9834;48.076;11.878;2023-12-04T05:20:58;8.10;;;4.03;;
19396;SDS011;9834;48.076;11.878;2023-12-04T05:23:26;11.90;;;6.00;;
19396;SDS011;9834;48.076;11.878;2023-12-04T05:25:53;7.87;;;4.73;;
19396;SDS011;9834;48.076;11.878;2023-12-04T05:28:21;8.97;;;5.20;;
19396;SDS011;9834;48.076;11.878;2023-12-04T05:30:48;7.27;;;3.90;;
19396;SDS011;9834;48.076;11.878;2023-12-04T05:33:18;8.47;;;4.80;;
19396;SDS011;9834;48.076;11.878;2023-12-04T05:35:47;6.87;;;3.63;;
19396;SDS011;9834;48.076;11.878;2023-12-04T05:38:17;8.10;;;4.53;;
19396;SDS011;9834;48.076;11.878;2023-12-04T05:40:45;6.23;;;4.63;;
19396;SDS011;9834;48.076;11.878;2023-12-04T05:43:20;10.87;;;5.90;;
19396;SDS011;9834;48.076;11.878;2023-12-04T05:45:47;9.73;;;5.23;;
19396;SDS011;9834;48.076;11.878;2023-12-04T05:48:18;10.43;;;4.43;;
19396;SDS011;9834;48.076;11.878;2023-12-04T05:50:51;9.43;;;4.97;;
19396;SDS011;9834;48.076;11.878;2023-12-04T05:53:20;8.53;;;4.23;;
19396;SDS011;9834;48.076;11.878;2023-12-04T05:55:53;7.83;;;3.57;;
19396;SDS011;9834;48.076;11.878;2023-12-04T05:58:24;8.53;;;4.43;;
19396;SDS011;9834;48.076;11.878;2023-12-04T06:00:52;9.63;;;4.30;;
19396;SDS011;9834;48.076;11.878;2023-12-04T06:03:22;11.57;;;5.13;;
19396;SDS011;9834;48.076;11.878;2023-12-04T06:05:53;10.13;;;4.97;;
19396;SDS011;9834;48.076;11.878;2023-12-04T06:08:33;8.07;;;4.60;;
19396;SDS011;9834;48.076;11.878;2023-12-04T06:11:01;10.13;;;4.60;;
19396;SDS011;9834;48.076;11.878;2023-12-04T06:13:30;6.43;;;3.87;;
19396;SDS011;9834;48.076;11.878;2023-12-04T06:16:05;9.27;;;4.63;;
19396;SDS011;9834;48.076;11.878;2023-12-04T06:18:33;10.50;;;5.00;;
19396;SDS011;9834;48.076;11.878;2023-12-04T06:21:03;8.87;;;4.57;;
19396;SDS011;9834;48.076;11.878;2023-12-04T06:23:31;10.20;;;5.13;;
19396;SDS011;9834;48.076;11.878;2023-12-04T06:26:19;8.17;;;4.43;;
19396;SDS011;9834;48.076;11.878;2023-12-04T06:28:46;6.43;;;4.27;;
19396;SDS011;9834;48.076;11.878;2023-12-04T06:31:17;6.47;;;4.20;;
19396;SDS011;9834;48.076;11.878;2023-12-04T06:33:45;5.87;;;4.27;;
19396;SDS011;9834;48.076;11.878;2023-12-04T06:36:13;8.40;;;4.60;;
19396;SDS011;9834;48.076;11.878;2023-12-04T06:38:44;10.57;;;4.80;;
19396;SDS011;9834;48.076;11.878;2023-12-04T06:41:20;10.80;;;3.87;;
19396;SDS011;9834;48.076;11.878;2023-12-04T06:43:48;6.60;;;3.93;;
19396;SDS011;9834;48.076;11.878;2023-12-04T06:46:15;6.43;;;3.97;;
19396;SDS011;9834;48.076;11.878;2023-12-04T06:48:46;6.67;;;4.23;;
19396;SDS011;9834;48.076;11.878;2023-12-04T06:51:21;9.13;;;4.83;;
19396;SDS011;9834;48.076;11.878;2023-12-04T06:53:54;9.50;;;4.37;;
19396;SDS011;9834;48.076;11.878;2023-12-04T06:56:23;5.87;;;4.03;;
19396;SDS011;9834;48.076;11.878;2023-12-04T06:58:50;9.33;;;3.63;;
19396;SDS011;9834;48.076;11.878;2023-12-04T07:01:18;6.37;;;3.67;;
19396;SDS011;9834;48.076;11.878;2023-12-04T07:03:47;8.20;;;3.93;;
19396;SDS011;9834;48.076;11.878;2023-12-04T07:06:14;4.93;;;3.43;;
19396;SDS011;9834;48.076;11.878;2023-12-04T07:08:41;4.53;;;3.33;;
19396;SDS011;9834;48.076;11.878;2023-12-04T07:11:08;5.97;;;3.33;;
19396;SDS011;9834;48.076;11.878;2023-12-04T07:13:37;6.53;;;3.73;;
19396;SDS011;9834;48.076;11.878;2023-12-04T07:16:07;7.60;;;4.70;;
19396;SDS011;9834;48.076;11.878;2023-12-04T07:18:37;4.80;;;3.40;;
19396;SDS011;9834;48.076;11.878;2023-12-04T07:21:05;3.63;;;2.80;;
19396;SDS011;9834;48.076;11.878;2023-12-04T07:23:32;11.40;;;4.57;;
19396;SDS011;9834;48.076;11.878;2023-12-04T07:26:00;5.20;;;2.57;;
19396;SDS011;9834;48.076;11.878;2023-12-04T07:28:27;5.97;;;3.87;;
19396;SDS011;9834;48.076;11.878;2023-12-04T07:30:56;5.93;;;3.17;;
19396;SDS011;9834;48.076;11.878;2023-12-04T07:33:27;6.23;;;3.77;;
19396;SDS011;9834;48.076;11.878;2023-12-04T07:35:54;5.47;;;3.63;;
19396;SDS011;9834;48.076;11.878;2023-12-04T07:38:22;7.60;;;3.53;;
19396;SDS011;9834;48.076;11.878;2023-12-04T07:40:52;4.83;;;3.67;;
19396;SDS011;9834;48.076;11.878;2023-12-04T07:43:21;7.97;;;4.40;;
19396;SDS011;9834;48.076;11.878;2023-12-04T07:45:59;5.70;;;3.77;;
19396;SDS011;9834;48.076;11.878;2023-12-04T07:48:35;6.27;;;3.87;;
19396;SDS011;9834;48.076;11.878;2023-12-04T07:51:05;6.80;;;3.67;;
19396;SDS011;9834;48.076;11.878;2023-12-04T07:53:33;4.13;;;2.93;;
19396;SDS011;9834;48.076;11.878;2023-12-04T07:56:01;5.93;;;4.00;;
19396;SDS011;9834;48.076;11.878;2023-12-04T07:58:34;9.27;;;3.83;;
19396;SDS011;9834;48.076;11.878;2023-12-04T08:01:03;7.13;;;4.40;;
19396;SDS011;9834;48.076;11.878;2023-12-04T08:03:30;9.13;;;4.20;;
19396;SDS011;9834;48.076;11.878;2023-12-04T08:05:58;8.70;;;5.03;;
19396;SDS011;9834;48.076;11.878;2023-12-04T08:08:29;16.27;;;7.73;;
19396;SDS011;9834;48.076;11.878;2023-12-04T08:10:56;13.73;;;5.87;;
19396;SDS011;9834;48.076;11.878;2023-12-04T08:13:23;8.73;;;4.27;;
19396;SDS011;9834;48.076;11.878;2023-12-04T08:15:51;8.00;;;5.07;;
19396;SDS011;9834;48.076;11.878;2023-12-04T08:18:19;10.37;;;5.33;;
19396;SDS011;9834;48.076;11.878;2023-12-04T08:20:46;10.87;;;5.97;;
19396;SDS011;9834;48.076;11.878;2023-12-04T08:23:14;12.67;;;7.10;;
19396;SDS011;9834;48.076;11.878;2023-12-04T08:25:41;13.50;;;7.20;;
19396;SDS011;9834;48.076;11.878;2023-12-04T08:28:09;8.80;;;5.27;;
19396;SDS011;9834;48.076;11.878;2023-12-04T08:30:36;7.23;;;4.03;;
19396;SDS011;9834;48.076;11.878;2023-12-04T08:33:05;10.60;;;5.80;;
19396;SDS011;9834;48.076;11.878;2023-12-04T08:35:33;8.67;;;5.57;;
19396;SDS011;9834;48.076;11.878;2023-12-04T08:38:05;8.07;;;4.40;;
19396;SDS011;9834;48.076;11.878;2023-12-04T08:40:35;8.97;;;4.57;;
19396;SDS011;9834;48.076;11.878;2023-12-04T08:43:03;11.00;;;5.53;;
19396;SDS011;9834;48.076;11.878;2023-12-04T08:45:33;7.77;;;5.50;;
19396;SDS011;9834;48.076;11.878;2023-12-04T08:48:00;9.13;;;4.67;;
19396;SDS011;9834;48.076;11.878;2023-12-04T08:50:28;7.40;;;4.93;;
19396;SDS011;9834;48.076;11.878;2023-12-04T08:52:59;8.00;;;5.40;;
19396;SDS011;9834;48.076;11.878;2023-12-04T08:55:29;8.43;;;4.93;;
19396;SDS011;9834;48.076;11.878;2023-12-04T08:57:57;10.10;;;4.40;;
19396;SDS011;9834;48.076;11.878;2023-12-04T09:00:29;8.60;;;4.87;;
19396;SDS011;9834;48.076;11.878;2023-12-04T09:02:56;7.63;;;4.27;;
19396;SDS011;9834;48.076;11.878;2023-12-04T09:05:23;7.87;;;4.03;;
19396;SDS011;9834;48.076;11.878;2023-12-04T09:07:55;6.50;;;3.73;;
19396;SDS011;9834;48.076;11.878;2023-12-04T09:10:24;8.80;;;5.50;;
19396;SDS011;9834;48.076;11.878;2023-12-04T09:12:52;7.10;;;4.73;;
19396;SDS011;9834;48.076;11.878;2023-12-04T09:15:20;6.40;;;4.57;;
19396;SDS011;9834;48.076;11.878;2023-12-04T09:17:50;6.00;;;3.53;;
19396;SDS011;9834;48.076;11.878;2023-12-04T09:20:23;9.53;;;4.77;;
19396;SDS011;9834;48.076;11.878;2023-12-04T09:22:51;7.07;;;4.53;;
19396;SDS011;9834;48.076;11.878;2023-12-04T09:25:18;7.57;;;4.37;;
19396;SDS011;9834;48.076;11.878;2023-12-04T09:27:47;8.83;;;4.10;;
19396;SDS011;9834;48.076;11.878;2023-12-04T09:30:17;11.30;;;5.83;;
19396;SDS011;9834;48.076;11.878;2023-12-04T09:32:45;7.70;;;4.53;;
19396;SDS011;9834;48.076;11.878;2023-12-04T09:35:12;7.30;;;4.53;;
19396;SDS011;9834;48.076;11.878;2023-12-04T09:37:40;7.40;;;4.87;;
19396;SDS011;9834;48.076;11.878;2023-12-04T09:40:10;6.53;;;4.03;;
19396;SDS011;9834;48.076;11.878;2023-12-04T09:42:39;6.20;;;5.23;;
19396;SDS011;9834;48.076;11.878;2023-12-04T09:45:10;6.37;;;4.37;;
19396;SDS011;9834;48.076;11.878;2023-12-04T09:47:38;8.30;;;4.30;;
19396;SDS011;9834;48.076;11.878;2023-12-04T09:50:06;8.27;;;5.03;;
19396;SDS011;9834;48.076;11.878;2023-12-04T09:52:34;8.07;;;5.03;;
19396;SDS011;9834;48.076;11.878;2023-12-04T09:55:03;7.40;;;4.13;;
19396;SDS011;9834;48.076;11.878;2023-12-04T09:57:32;7.07;;;4.27;;
19396;SDS011;9834;48.076;11.878;2023-12-04T10:00:00;7.97;;;4.17;;
19396;SDS011;9834;48.076;11.878;2023-12-04T10:02:31;8.57;;;5.33;;
19396;SDS011;9834;48.076;11.878;2023-12-04T10:04:59;6.60;;;4.57;;
19396;SDS011;9834;48.076;11.878;2023-12-04T10:07:30;5.10;;;3.70;;
19396;SDS011;9834;48.076;11.878;2023-12-04T10:09:57;11.77;;;4.83;;
19396;SDS011;9834;48.076;11.878;2023-12-04T10:12:25;7.53;;;4.50;;
19396;SDS011;9834;48.076;11.878;2023-12-04T10:15:05;7.50;;;3.80;;
19396;SDS011;9834;48.076;11.878;2023-12-04T10:17:35;3.87;;;3.30;;
19396;SDS011;9834;48.076;11.878;2023-12-04T10:20:04;6.10;;;3.70;;
19396;SDS011;9834;48.076;11.878;2023-12-04T10:22:37;6.50;;;4.00;;
19396;SDS011;9834;48.076;11.878;2023-12-04T10:25:14;5.37;;;3.50;;
19396;SDS011;9834;48.076;11.878;2023-12-04T10:27:43;8.00;;;3.90;;
19396;SDS011;9834;48.076;11.878;2023-12-04T10:30:21;5.70;;;3.73;;
19396;SDS011;9834;48.076;11.878;2023-12-04T10:32:55;3.80;;;3.07;;
19396;SDS011;9834;48.076;11.878;2023-12-04T10:35:25;5.60;;;4.10;;
19396;SDS011;9834;48.076;11.878;2023-12-04T10:37:56;3.87;;;3.30;;
19396;SDS011;9834;48.076;11.878;2023-12-04T10:40:25;4.30;;;3.47;;
19396;SDS011;9834;48.076;11.878;2023-12-04T10:45:43;6.63;;;3.30;;
19396;SDS011;9834;48.076;11.878;2023-12-04T10:48:14;3.70;;;3.20;;
19396;SDS011;9834;48.076;11.878;2023-12-04T10:50:44;7.00;;;2.87;;
19396;SDS011;9834;48.076;11.878;2023-12-04T10:53:13;9.20;;;3.20;;
19396;SDS011;9834;48.076;11.878;2023-12-04T10:55:42;4.50;;;2.53;;
19396;SDS011;9834;48.076;11.878;2023-12-04T10:58:14;5.63;;;3.33;;
19396;SDS011;9834;48.076;11.878;2023-12-04T11:00:43;4.53;;;2.73;;
19396;SDS011;9834;48.076;11.878;2023-12-04T11:03:17;3.13;;;2.70;;
19396;SDS011;9834;48.076;11.878;2023-12-04T11:05:49;5.17;;;2.73;;
19396;SDS011;9834;48.076;11.878;2023-12-04T11:08:25;3.97;;;2.37;;
19396;SDS011;9834;48.076;11.878;2023-12-04T11:10:56;3.27;;;2.40;;
19396;SDS011;9834;48.076;11.878;2023-12-04T11:13:26;5.50;;;2.80;;
19396;SDS011;9834;48.076;11.878;2023-12-04T11:16:09;5.77;;;3.13;;
19396;SDS011;9834;48.076;11.878;2023-12-04T11:18:59;4.73;;;3.27;;
19396;SDS011;9834;48.076;11.878;2023-12-04T11:21:33;4.23;;;3.20;;
19396;SDS011;9834;48.076;11.878;2023-12-04T11:24:03;6.57;;;3.70;;
19396;SDS011;9834;48.076;11.878;2023-12-04T11:26:32;6.57;;;3.87;;
19396;SDS011;9834;48.076;11.878;2023-12-04T11:29:06;4.73;;;3.10;;
19396;SDS011;9834;48.076;11.878;2023-12-04T11:31:38;5.83;;;3.20;;
19396;SDS011;9834;48.076;11.878;2023-12-04T11:34:09;5.23;;;3.37;;
19396;SDS011;9834;48.076;11.878;2023-12-04T11:36:37;6.73;;;4.00;;
19396;SDS011;9834;48.076;11.878;2023-12-04T11:41:55;4.63;;;3.07;;
19396;SDS011;9834;48.076;11.878;2023-12-04T11:44:22;3.37;;;3.03;;
19396;SDS011;9834;48.076;11.878;2023-12-04T11:46:57;4.67;;;3.07;;
19396;SDS011;9834;48.076;11.878;2023-12-04T11:49:30;4.53;;;3.23;;
19396;SDS011;9834;48.076;11.878;2023-12-04T11:52:03;4.90;;;3.63;;
19396;SDS011;9834;48.076;11.878;2023-12-04T11:57:33;5.27;;;3.63;;
19396;SDS011;9834;48.076;11.878;2023-12-04T12:00:08;3.77;;;2.77;;
19396;SDS011;9834;48.076;11.878;2023-12-04T12:03:05;3.60;;;3.17;;
19396;SDS011;9834;48.076;11.878;2023-12-04T12:05:36;3.87;;;3.07;;
19396;SDS011;9834;48.076;11.878;2023-12-04T12:08:06;7.73;;;3.70;;
19396;SDS011;9834;48.076;11.878;2023-12-04T12:10:34;3.57;;;2.87;;
19396;SDS011;9834;48.076;11.878;2023-12-04T12:13:02;4.20;;;3.80;;
19396;SDS011;9834;48.076;11.878;2023-12-04T12:15:33;5.37;;;3.33;;
19396;SDS011;9834;48.076;11.878;2023-12-04T12:18:00;5.97;;;3.53;;
19396;SDS011;9834;48.076;11.878;2023-12-04T12:20:29;6.47;;;4.33;;
19396;SDS011;9834;48.076;11.878;2023-12-04T12:22:58;6.90;;;3.30;;
19396;SDS011;9834;48.076;11.878;2023-12-04T12:25:26;7.17;;;4.43;;
19396;SDS011;9834;48.076;11.878;2023-12-04T12:27:56;6.93;;;3.73;;
19396;SDS011;9834;48.076;11.878;2023-12-04T12:30:28;4.30;;;3.60;;
19396;SDS011;9834;48.076;11.878;2023-12-04T12:33:01;8.07;;;3.67;;
19396;SDS011;9834;48.076;11.878;2023-12-04T12:35:29;7.77;;;4.77;;
19396;SDS011;9834;48.076;11.878;2023-12-04T12:38:01;6.20;;;3.57;;
19396;SDS011;9834;48.076;11.878;2023-12-04T12:40:29;5.57;;;3.87;;
19396;SDS011;9834;48.076;11.878;2023-12-04T12:43:05;4.83;;;3.73;;
19396;SDS011;9834;48.076;11.878;2023-12-04T12:45:38;4.83;;;3.23;;
19396;SDS011;9834;48.076;11.878;2023-12-04T12:48:10;4.63;;;3.93;;
19396;SDS011;9834;48.076;11.878;2023-12-04T12:50:39;4.73;;;3.73;;
19396;SDS011;9834;48.076;11.878;2023-12-04T12:53:07;7.93;;;3.93;;
19396;SDS011;9834;48.076;11.878;2023-12-04T12:55:38;7.60;;;5.60;;
19396;SDS011;9834;48.076;11.878;2023-12-04T12:58:14;4.30;;;3.53;;
19396;SDS011;9834;48.076;11.878;2023-12-04T13:00:48;6.93;;;3.23;;
19396;SDS011;9834;48.076;11.878;2023-12-04T13:03:19;7.10;;;4.23;;
19396;SDS011;9834;48.076;11.878;2023-12-04T13:05:47;5.50;;;4.30;;
19396;SDS011;9834;48.076;11.878;2023-12-04T13:08:22;7.17;;;4.17;;
19396;SDS011;9834;48.076;11.878;2023-12-04T13:10:51;5.13;;;4.17;;
19396;SDS011;9834;48.076;11.878;2023-12-04T13:13:21;5.03;;;4.47;;
19396;SDS011;9834;48.076;11.878;2023-12-04T13:15:48;7.67;;;4.60;;
19396;SDS011;9834;48.076;11.878;2023-12-04T13:18:16;7.60;;;5.00;;
19396;SDS011;9834;48.076;11.878;2023-12-04T13:20:44;6.23;;;4.57;;
19396;SDS011;9834;48.076;11.878;2023-12-04T13:23:12;9.70;;;5.20;;
19396;SDS011;9834;48.076;11.878;2023-12-04T13:25:41;8.63;;;5.17;;
19396;SDS011;9834;48.076;11.878;2023-12-04T13:28:18;7.03;;;5.00;;
19396;SDS011;9834;48.076;11.878;2023-12-04T13:30:45;8.20;;;3.90;;
19396;SDS011;9834;48.076;11.878;2023-12-04T13:33:19;6.13;;;4.23;;
19396;SDS011;9834;48.076;11.878;2023-12-04T13:35:46;5.70;;;4.87;;
19396;SDS011;9834;48.076;11.878;2023-12-04T13:38:19;5.27;;;4.23;;
19396;SDS011;9834;48.076;11.878;2023-12-04T13:40:48;8.23;;;5.10;;
19396;SDS011;9834;48.076;11.878;2023-12-04T13:43:25;7.33;;;3.93;;
19396;SDS011;9834;48.076;11.878;2023-12-04T13:46:15;6.90;;;3.90;;
19396;SDS011;9834;48.076;11.878;2023-12-04T13:48:47;5.60;;;4.00;;
19396;SDS011;9834;48.076;11.878;2023-12-04T13:51:22;7.93;;;4.97;;
19396;SDS011;9834;48.076;11.878;2023-12-04T13:54:05;4.97;;;4.27;;
19396;SDS011;9834;48.076;11.878;2023-12-04T13:56:47;7.90;;;5.47;;
19396;SDS011;9834;48.076;11.878;2023-12-04T13:59:22;8.37;;;5.27;;
19396;SDS011;9834;48.076;11.878;2023-12-04T14:01:50;6.87;;;4.83;;
19396;SDS011;9834;48.076;11.878;2023-12-04T14:04:19;6.60;;;4.60;;
19396;SDS011;9834;48.076;11.878;2023-12-04T14:06:49;7.53;;;4.80;;
19396;SDS011;9834;48.076;11.878;2023-12-04T14:09:16;9.07;;;5.17;;
19396;SDS011;9834;48.076;11.878;2023-12-04T14:11:56;8.53;;;6.60;;
19396;SDS011;9834;48.076;11.878;2023-12-04T14:14:24;8.60;;;4.13;;
19396;SDS011;9834;48.076;11.878;2023-12-04T14:17:00;7.47;;;5.20;;
19396;SDS011;9834;48.076;11.878;2023-12-04T14:19:29;9.83;;;5.80;;
19396;SDS011;9834;48.076;11.878;2023-12-04T14:21:57;7.90;;;6.17;;
19396;SDS011;9834;48.076;11.878;2023-12-04T14:24:27;10.07;;;5.60;;
19396;SDS011;9834;48.076;11.878;2023-12-04T14:26:57;9.23;;;5.00;;
19396;SDS011;9834;48.076;11.878;2023-12-04T14:29:24;7.87;;;4.47;;
19396;SDS011;9834;48.076;11.878;2023-12-04T14:32:02;6.70;;;4.50;;
19396;SDS011;9834;48.076;11.878;2023-12-04T14:34:32;7.70;;;4.40;;
19396;SDS011;9834;48.076;11.878;2023-12-04T14:37:04;7.80;;;5.03;;
19396;SDS011;9834;48.076;11.878;2023-12-04T14:39:33;9.33;;;4.43;;
19396;SDS011;9834;48.076;11.878;2023-12-04T14:42:09;11.00;;;5.43;;
19396;SDS011;9834;48.076;11.878;2023-12-04T14:44:36;7.20;;;5.43;;
19396;SDS011;9834;48.076;11.878;2023-12-04T14:47:04;9.00;;;5.00;;
19396;SDS011;9834;48.076;11.878;2023-12-04T14:49:34;8.13;;;5.83;;
19396;SDS011;9834;48.076;11.878;2023-12-04T14:52:01;8.67;;;5.30;;
19396;SDS011;9834;48.076;11.878;2023-12-04T14:54:32;9.40;;;5.90;;
19396;SDS011;9834;48.076;11.878;2023-12-04T14:57:20;7.00;;;4.87;;
19396;SDS011;9834;48.076;11.878;2023-12-04T15:00:30;8.43;;;5.27;;
19396;SDS011;9834;48.076;11.878;2023-12-04T15:03:34;7.00;;;5.83;;
19396;SDS011;9834;48.076;11.878;2023-12-04T15:06:21;12.47;;;7.70;;
19396;SDS011;9834;48.076;11.878;2023-12-04T15:09:07;15.67;;;8.37;;
19396;SDS011;9834;48.076;11.878;2023-12-04T15:11:53;11.03;;;6.27;;